sensor_id;sensor_type;location;lat;lon;timestamp;P1;durP1;ratioP1;P2;durP2;ratioP2
19024;SDS011;9645;51.448;6.260;2022-11-15T00:02:17;29.27;;;11.70;;
19024;SDS011;9645;51.448;6.260;2022-11-15T00:04:44;27.75;;;11.40;;
19024;SDS011;9645;51.448;6.260;2022-11-15T00:07:12;30.60;;;12.27;;
19024;SDS011;9645;51.448;6.260;2022-11-15T00:09:39;26.75;;;12.18;;
19024;SDS011;9645;51.448;6.260;2022-11-15T00:12:06;27.77;;;13.10;;
19024;SDS011;9645;51.448;6.260;2022-11-15T00:14:33;30.38;;;12.23;;
19024;SDS011;9645;51.448;6.260;2022-11-15T00:17:00;35.38;;;12.40;;
19024;SDS011;9645;51.448;6.260;2022-11-15T00:19:27;23.42;;;11.45;;
19024;SDS011;9645;51.448;6.260;2022-11-15T00:21:54;27.02;;;12.07;;
19024;SDS011;9645;51.448;6.260;2022-11-15T00:24:22;27.98;;;13.10;;
19024;SDS011;9645;51.448;6.260;2022-11-15T00:26:49;27.35;;;11.77;;
19024;SDS011;9645;51.448;6.260;2022-11-15T00:29:16;24.90;;;13.05;;
19024;SDS011;9645;51.448;6.260;2022-11-15T00:31:43;24.30;;;11.68;;
19024;SDS011;9645;51.448;6.260;2022-11-15T00:34:10;26.50;;;12.45;;
19024;SDS011;9645;51.448;6.260;2022-11-15T00:36:37;27.50;;;11.38;;
19024;SDS011;9645;51.448;6.260;2022-11-15T00:39:04;25.90;;;12.25;;
19024;SDS011;9645;51.448;6.260;2022-11-15T00:41:32;28.08;;;11.50;;
19024;SDS011;9645;51.448;6.260;2022-11-15T00:43:59;24.35;;;12.30;;
19024;SDS011;9645;51.448;6.260;2022-11-15T00:46:26;27.90;;;12.45;;
19024;SDS011;9645;51.448;6.260;2022-11-15T00:48:53;30.98;;;11.98;;
19024;SDS011;9645;51.448;6.260;2022-11-15T00:51:20;30.25;;;12.52;;
19024;SDS011;9645;51.448;6.260;2022-11-15T00:53:47;29.13;;;13.02;;
19024;SDS011;9645;51.448;6.260;2022-11-15T00:56:14;31.25;;;13.40;;
19024;SDS011;9645;51.448;6.260;2022-11-15T00:58:42;28.88;;;13.07;;
19024;SDS011;9645;51.448;6.260;2022-11-15T01:01:10;29.00;;;11.98;;
19024;SDS011;9645;51.448;6.260;2022-11-15T01:03:38;23.70;;;10.63;;
19024;SDS011;9645;51.448;6.260;2022-11-15T01:06:07;24.40;;;11.77;;
19024;SDS011;9645;51.448;6.260;2022-11-15T01:08:35;26.63;;;12.15;;
19024;SDS011;9645;51.448;6.260;2022-11-15T01:11:02;24.67;;;12.35;;
19024;SDS011;9645;51.448;6.260;2022-11-15T01:13:30;27.73;;;12.32;;
19024;SDS011;9645;51.448;6.260;2022-11-15T01:15:59;24.40;;;12.13;;
19024;SDS011;9645;51.448;6.260;2022-11-15T01:18:31;24.92;;;12.13;;
19024;SDS011;9645;51.448;6.260;2022-11-15T01:20:58;29.05;;;13.27;;
19024;SDS011;9645;51.448;6.260;2022-11-15T01:23:25;31.92;;;12.82;;
19024;SDS011;9645;51.448;6.260;2022-11-15T01:25:52;28.02;;;11.85;;
19024;SDS011;9645;51.448;6.260;2022-11-15T01:28:24;26.17;;;11.85;;
19024;SDS011;9645;51.448;6.260;2022-11-15T01:30:51;25.60;;;11.82;;
19024;SDS011;9645;51.448;6.260;2022-11-15T01:33:19;24.95;;;12.38;;
19024;SDS011;9645;51.448;6.260;2022-11-15T01:35:46;30.33;;;11.68;;
19024;SDS011;9645;51.448;6.260;2022-11-15T01:38:13;33.97;;;14.80;;
19024;SDS011;9645;51.448;6.260;2022-11-15T01:40:40;33.35;;;12.45;;
19024;SDS011;9645;51.448;6.260;2022-11-15T01:43:20;25.15;;;11.55;;
19024;SDS011;9645;51.448;6.260;2022-11-15T01:45:49;27.45;;;12.38;;
19024;SDS011;9645;51.448;6.260;2022-11-15T01:48:20;28.35;;;12.57;;
19024;SDS011;9645;51.448;6.260;2022-11-15T01:50:48;33.95;;;14.10;;
19024;SDS011;9645;51.448;6.260;2022-11-15T01:53:16;26.85;;;13.02;;
19024;SDS011;9645;51.448;6.260;2022-11-15T01:55:45;27.33;;;11.88;;
19024;SDS011;9645;51.448;6.260;2022-11-15T01:58:12;26.48;;;11.73;;
19024;SDS011;9645;51.448;6.260;2022-11-15T02:00:39;28.45;;;12.23;;
19024;SDS011;9645;51.448;6.260;2022-11-15T02:03:06;28.17;;;12.15;;
19024;SDS011;9645;51.448;6.260;2022-11-15T02:05:35;25.38;;;11.88;;
19024;SDS011;9645;51.448;6.260;2022-11-15T02:08:03;24.90;;;11.82;;
19024;SDS011;9645;51.448;6.260;2022-11-15T02:10:31;23.83;;;11.90;;
19024;SDS011;9645;51.448;6.260;2022-11-15T02:12:58;25.90;;;12.18;;
19024;SDS011;9645;51.448;6.260;2022-11-15T02:15:28;24.17;;;12.70;;
19024;SDS011;9645;51.448;6.260;2022-11-15T02:18:05;30.17;;;13.25;;
19024;SDS011;9645;51.448;6.260;2022-11-15T02:20:48;33.85;;;13.07;;
19024;SDS011;9645;51.448;6.260;2022-11-15T02:29:41;35.03;;;14.93;;
19024;SDS011;9645;51.448;6.260;2022-11-15T02:32:26;31.35;;;13.75;;
19024;SDS011;9645;51.448;6.260;2022-11-15T02:35:01;27.55;;;12.80;;
19024;SDS011;9645;51.448;6.260;2022-11-15T02:37:37;29.02;;;14.20;;
19024;SDS011;9645;51.448;6.260;2022-11-15T02:40:11;27.42;;;13.30;;
19024;SDS011;9645;51.448;6.260;2022-11-15T02:42:44;25.17;;;12.65;;
19024;SDS011;9645;51.448;6.260;2022-11-15T02:45:37;30.13;;;12.25;;
19024;SDS011;9645;51.448;6.260;2022-11-15T02:48:10;25.95;;;12.57;;
19024;SDS011;9645;51.448;6.260;2022-11-15T02:50:38;30.38;;;12.13;;
19024;SDS011;9645;51.448;6.260;2022-11-15T02:53:05;26.73;;;12.77;;
19024;SDS011;9645;51.448;6.260;2022-11-15T02:55:35;24.42;;;10.43;;
19024;SDS011;9645;51.448;6.260;2022-11-15T02:58:11;23.52;;;11.65;;
19024;SDS011;9645;51.448;6.260;2022-11-15T03:01:00;23.80;;;11.60;;
19024;SDS011;9645;51.448;6.260;2022-11-15T03:03:46;23.17;;;11.25;;
19024;SDS011;9645;51.448;6.260;2022-11-15T03:06:24;28.67;;;12.27;;
19024;SDS011;9645;51.448;6.260;2022-11-15T03:09:02;31.73;;;12.73;;
19024;SDS011;9645;51.448;6.260;2022-11-15T03:11:35;25.10;;;11.85;;
19024;SDS011;9645;51.448;6.260;2022-11-15T03:14:07;22.05;;;11.10;;
19024;SDS011;9645;51.448;6.260;2022-11-15T03:16:46;19.83;;;10.25;;
19024;SDS011;9645;51.448;6.260;2022-11-15T03:19:19;24.05;;;11.18;;
19024;SDS011;9645;51.448;6.260;2022-11-15T03:21:52;28.17;;;12.10;;
19024;SDS011;9645;51.448;6.260;2022-11-15T03:24:22;27.02;;;12.63;;
19024;SDS011;9645;51.448;6.260;2022-11-15T03:26:51;29.23;;;11.80;;
19024;SDS011;9645;51.448;6.260;2022-11-15T03:29:21;20.15;;;10.98;;
19024;SDS011;9645;51.448;6.260;2022-11-15T03:31:51;21.65;;;10.75;;
19024;SDS011;9645;51.448;6.260;2022-11-15T03:34:25;25.63;;;12.63;;
19024;SDS011;9645;51.448;6.260;2022-11-15T03:36:55;25.95;;;11.85;;
19024;SDS011;9645;51.448;6.260;2022-11-15T03:39:22;23.20;;;11.57;;
19024;SDS011;9645;51.448;6.260;2022-11-15T03:41:52;23.20;;;11.82;;
19024;SDS011;9645;51.448;6.260;2022-11-15T03:44:31;23.75;;;11.10;;
19024;SDS011;9645;51.448;6.260;2022-11-15T03:47:07;23.70;;;10.57;;
19024;SDS011;9645;51.448;6.260;2022-11-15T03:49:40;27.08;;;12.13;;
19024;SDS011;9645;51.448;6.260;2022-11-15T03:52:11;21.73;;;10.90;;
19024;SDS011;9645;51.448;6.260;2022-11-15T03:54:47;24.83;;;11.80;;
19024;SDS011;9645;51.448;6.260;2022-11-15T03:57:15;21.77;;;10.65;;
19024;SDS011;9645;51.448;6.260;2022-11-15T03:59:48;20.83;;;11.57;;
19024;SDS011;9645;51.448;6.260;2022-11-15T04:02:16;19.27;;;10.95;;
19024;SDS011;9645;51.448;6.260;2022-11-15T04:04:44;24.10;;;11.57;;
19024;SDS011;9645;51.448;6.260;2022-11-15T04:07:11;26.77;;;10.40;;
19024;SDS011;9645;51.448;6.260;2022-11-15T04:09:38;17.92;;;10.60;;
19024;SDS011;9645;51.448;6.260;2022-11-15T04:12:19;24.33;;;10.98;;
19024;SDS011;9645;51.448;6.260;2022-11-15T04:14:55;26.38;;;10.85;;
19024;SDS011;9645;51.448;6.260;2022-11-15T04:17:33;21.15;;;10.55;;
19024;SDS011;9645;51.448;6.260;2022-11-15T04:20:03;24.95;;;12.02;;
19024;SDS011;9645;51.448;6.260;2022-11-15T04:22:48;25.95;;;9.73;;
19024;SDS011;9645;51.448;6.260;2022-11-15T04:25:32;19.95;;;10.13;;
19024;SDS011;9645;51.448;6.260;2022-11-15T04:27:59;25.00;;;10.15;;
19024;SDS011;9645;51.448;6.260;2022-11-15T04:30:26;32.35;;;10.57;;
19024;SDS011;9645;51.448;6.260;2022-11-15T04:32:53;21.23;;;10.00;;
19024;SDS011;9645;51.448;6.260;2022-11-15T04:35:21;20.95;;;10.30;;
19024;SDS011;9645;51.448;6.260;2022-11-15T04:37:48;25.25;;;11.27;;
19024;SDS011;9645;51.448;6.260;2022-11-15T04:40:15;25.80;;;11.13;;
19024;SDS011;9645;51.448;6.260;2022-11-15T04:42:42;22.58;;;11.25;;
19024;SDS011;9645;51.448;6.260;2022-11-15T04:45:09;22.25;;;10.63;;
19024;SDS011;9645;51.448;6.260;2022-11-15T04:47:37;23.73;;;10.25;;
19024;SDS011;9645;51.448;6.260;2022-11-15T04:50:04;23.05;;;9.80;;
19024;SDS011;9645;51.448;6.260;2022-11-15T04:52:33;21.02;;;11.23;;
19024;SDS011;9645;51.448;6.260;2022-11-15T04:55:00;26.23;;;10.68;;
19024;SDS011;9645;51.448;6.260;2022-11-15T04:57:27;30.00;;;10.98;;
19024;SDS011;9645;51.448;6.260;2022-11-15T04:59:54;24.20;;;10.15;;
19024;SDS011;9645;51.448;6.260;2022-11-15T05:02:21;19.55;;;9.70;;
19024;SDS011;9645;51.448;6.260;2022-11-15T05:04:48;22.45;;;10.00;;
19024;SDS011;9645;51.448;6.260;2022-11-15T05:07:14;19.87;;;9.33;;
19024;SDS011;9645;51.448;6.260;2022-11-15T05:09:43;24.92;;;9.60;;
19024;SDS011;9645;51.448;6.260;2022-11-15T05:12:10;25.88;;;11.23;;
19024;SDS011;9645;51.448;6.260;2022-11-15T05:14:37;22.60;;;10.02;;
19024;SDS011;9645;51.448;6.260;2022-11-15T05:17:04;20.52;;;9.85;;
19024;SDS011;9645;51.448;6.260;2022-11-15T05:19:31;19.27;;;9.85;;
19024;SDS011;9645;51.448;6.260;2022-11-15T05:21:58;20.05;;;10.38;;
19024;SDS011;9645;51.448;6.260;2022-11-15T05:24:28;21.67;;;10.18;;
19024;SDS011;9645;51.448;6.260;2022-11-15T05:26:56;21.70;;;10.80;;
19024;SDS011;9645;51.448;6.260;2022-11-15T05:29:24;24.80;;;10.55;;
19024;SDS011;9645;51.448;6.260;2022-11-15T05:31:51;23.25;;;9.50;;
19024;SDS011;9645;51.448;6.260;2022-11-15T05:34:19;18.23;;;9.57;;
19024;SDS011;9645;51.448;6.260;2022-11-15T05:36:48;18.40;;;9.65;;
19024;SDS011;9645;51.448;6.260;2022-11-15T05:39:15;18.67;;;9.32;;
19024;SDS011;9645;51.448;6.260;2022-11-15T05:41:43;21.05;;;10.48;;
19024;SDS011;9645;51.448;6.260;2022-11-15T05:44:14;25.80;;;11.43;;
19024;SDS011;9645;51.448;6.260;2022-11-15T05:46:44;21.23;;;9.85;;
19024;SDS011;9645;51.448;6.260;2022-11-15T05:49:12;19.15;;;9.98;;
19024;SDS011;9645;51.448;6.260;2022-11-15T05:51:44;35.67;;;10.70;;
19024;SDS011;9645;51.448;6.260;2022-11-15T05:54:15;21.48;;;10.25;;
19024;SDS011;9645;51.448;6.260;2022-11-15T05:56:45;21.60;;;9.77;;
19024;SDS011;9645;51.448;6.260;2022-11-15T05:59:30;18.55;;;10.00;;
19024;SDS011;9645;51.448;6.260;2022-11-15T06:01:59;25.48;;;10.77;;
19024;SDS011;9645;51.448;6.260;2022-11-15T06:04:26;22.98;;;10.13;;
19024;SDS011;9645;51.448;6.260;2022-11-15T06:06:53;20.02;;;9.88;;
19024;SDS011;9645;51.448;6.260;2022-11-15T06:09:20;23.73;;;9.55;;
19024;SDS011;9645;51.448;6.260;2022-11-15T06:11:47;19.25;;;9.23;;
19024;SDS011;9645;51.448;6.260;2022-11-15T06:14:14;29.30;;;10.20;;
19024;SDS011;9645;51.448;6.260;2022-11-15T06:16:43;22.58;;;9.77;;
19024;SDS011;9645;51.448;6.260;2022-11-15T06:19:10;20.08;;;9.35;;
19024;SDS011;9645;51.448;6.260;2022-11-15T06:21:37;18.63;;;9.25;;
19024;SDS011;9645;51.448;6.260;2022-11-15T06:24:04;24.65;;;9.18;;
19024;SDS011;9645;51.448;6.260;2022-11-15T06:26:32;25.58;;;8.90;;
19024;SDS011;9645;51.448;6.260;2022-11-15T06:28:59;18.30;;;8.75;;
19024;SDS011;9645;51.448;6.260;2022-11-15T06:31:26;21.52;;;9.30;;
19024;SDS011;9645;51.448;6.260;2022-11-15T06:33:54;23.20;;;8.95;;
19024;SDS011;9645;51.448;6.260;2022-11-15T06:36:21;16.17;;;7.90;;
19024;SDS011;9645;51.448;6.260;2022-11-15T06:38:48;24.15;;;9.15;;
19024;SDS011;9645;51.448;6.260;2022-11-15T06:41:16;22.98;;;9.55;;
19024;SDS011;9645;51.448;6.260;2022-11-15T06:43:43;21.13;;;8.30;;
19024;SDS011;9645;51.448;6.260;2022-11-15T06:46:10;20.00;;;9.23;;
19024;SDS011;9645;51.448;6.260;2022-11-15T06:48:37;18.52;;;8.65;;
19024;SDS011;9645;51.448;6.260;2022-11-15T06:51:06;16.42;;;7.05;;
19024;SDS011;9645;51.448;6.260;2022-11-15T06:53:33;14.95;;;8.15;;
19024;SDS011;9645;51.448;6.260;2022-11-15T06:56:00;15.95;;;7.93;;
19024;SDS011;9645;51.448;6.260;2022-11-15T06:58:28;16.67;;;7.28;;
19024;SDS011;9645;51.448;6.260;2022-11-15T07:01:00;14.23;;;7.63;;
19024;SDS011;9645;51.448;6.260;2022-11-15T07:03:28;12.27;;;6.90;;
19024;SDS011;9645;51.448;6.260;2022-11-15T07:05:55;14.23;;;6.47;;
19024;SDS011;9645;51.448;6.260;2022-11-15T07:08:26;12.30;;;6.40;;
19024;SDS011;9645;51.448;6.260;2022-11-15T07:10:54;9.23;;;5.60;;
19024;SDS011;9645;51.448;6.260;2022-11-15T07:13:23;11.55;;;5.88;;
19024;SDS011;9645;51.448;6.260;2022-11-15T07:15:51;11.55;;;6.65;;
19024;SDS011;9645;51.448;6.260;2022-11-15T07:18:18;16.63;;;5.93;;
19024;SDS011;9645;51.448;6.260;2022-11-15T07:20:45;9.25;;;4.72;;
19024;SDS011;9645;51.448;6.260;2022-11-15T07:23:12;10.73;;;4.80;;
19024;SDS011;9645;51.448;6.260;2022-11-15T07:25:40;7.25;;;4.55;;
19024;SDS011;9645;51.448;6.260;2022-11-15T07:28:07;7.60;;;4.85;;
19024;SDS011;9645;51.448;6.260;2022-11-15T07:30:34;11.38;;;5.38;;
19024;SDS011;9645;51.448;6.260;2022-11-15T07:33:01;7.63;;;5.15;;
19024;SDS011;9645;51.448;6.260;2022-11-15T07:35:28;11.20;;;5.60;;
19024;SDS011;9645;51.448;6.260;2022-11-15T07:37:56;15.57;;;5.82;;
19024;SDS011;9645;51.448;6.260;2022-11-15T07:40:24;8.18;;;5.07;;
19024;SDS011;9645;51.448;6.260;2022-11-15T07:42:53;7.63;;;5.00;;
19024;SDS011;9645;51.448;6.260;2022-11-15T07:45:25;8.20;;;4.70;;
19024;SDS011;9645;51.448;6.260;2022-11-15T07:47:53;6.80;;;4.72;;
19024;SDS011;9645;51.448;6.260;2022-11-15T07:50:22;8.57;;;4.07;;
19024;SDS011;9645;51.448;6.260;2022-11-15T07:52:53;8.32;;;4.32;;
19024;SDS011;9645;51.448;6.260;2022-11-15T07:55:21;6.05;;;4.20;;
19024;SDS011;9645;51.448;6.260;2022-11-15T07:57:48;6.82;;;3.55;;
19024;SDS011;9645;51.448;6.260;2022-11-15T08:00:17;6.55;;;3.95;;
19024;SDS011;9645;51.448;6.260;2022-11-15T08:02:45;10.80;;;4.13;;
19024;SDS011;9645;51.448;6.260;2022-11-15T08:05:12;5.85;;;3.55;;
19024;SDS011;9645;51.448;6.260;2022-11-15T08:07:39;4.97;;;3.50;;
19024;SDS011;9645;51.448;6.260;2022-11-15T08:10:07;6.63;;;3.20;;
19024;SDS011;9645;51.448;6.260;2022-11-15T08:12:34;6.22;;;3.95;;
19024;SDS011;9645;51.448;6.260;2022-11-15T08:15:01;7.05;;;2.85;;
19024;SDS011;9645;51.448;6.260;2022-11-15T08:17:29;4.32;;;3.42;;
19024;SDS011;9645;51.448;6.260;2022-11-15T08:19:58;9.93;;;3.72;;
19024;SDS011;9645;51.448;6.260;2022-11-15T08:22:25;6.72;;;3.60;;
19024;SDS011;9645;51.448;6.260;2022-11-15T08:24:52;10.07;;;4.55;;
19024;SDS011;9645;51.448;6.260;2022-11-15T08:27:19;9.98;;;4.90;;
19024;SDS011;9645;51.448;6.260;2022-11-15T08:29:48;32.53;;;13.55;;
19024;SDS011;9645;51.448;6.260;2022-11-15T08:32:15;39.30;;;12.73;;
19024;SDS011;9645;51.448;6.260;2022-11-15T08:34:44;46.78;;;14.52;;
19024;SDS011;9645;51.448;6.260;2022-11-15T08:37:11;9.68;;;4.68;;
19024;SDS011;9645;51.448;6.260;2022-11-15T08:39:38;8.10;;;4.72;;
19024;SDS011;9645;51.448;6.260;2022-11-15T08:42:05;21.80;;;10.05;;
19024;SDS011;9645;51.448;6.260;2022-11-15T08:44:31;11.70;;;5.70;;
19024;SDS011;9645;51.448;6.260;2022-11-15T08:46:58;13.73;;;6.93;;
19024;SDS011;9645;51.448;6.260;2022-11-15T08:49:25;7.70;;;4.60;;
19024;SDS011;9645;51.448;6.260;2022-11-15T08:51:54;12.88;;;4.85;;
19024;SDS011;9645;51.448;6.260;2022-11-15T08:54:21;13.02;;;5.00;;
19024;SDS011;9645;51.448;6.260;2022-11-15T08:56:48;11.20;;;4.05;;
19024;SDS011;9645;51.448;6.260;2022-11-15T08:59:14;5.50;;;3.40;;
19024;SDS011;9645;51.448;6.260;2022-11-15T09:01:41;5.88;;;3.72;;
19024;SDS011;9645;51.448;6.260;2022-11-15T09:04:08;4.28;;;2.92;;
19024;SDS011;9645;51.448;6.260;2022-11-15T09:06:35;4.80;;;2.67;;
19024;SDS011;9645;51.448;6.260;2022-11-15T09:09:04;3.72;;;2.65;;
19024;SDS011;9645;51.448;6.260;2022-11-15T09:11:30;6.60;;;2.60;;
19024;SDS011;9645;51.448;6.260;2022-11-15T09:13:58;6.40;;;3.55;;
19024;SDS011;9645;51.448;6.260;2022-11-15T09:16:24;6.20;;;3.90;;
19024;SDS011;9645;51.448;6.260;2022-11-15T09:18:52;6.47;;;3.45;;
19024;SDS011;9645;51.448;6.260;2022-11-15T09:21:19;5.47;;;2.73;;
19024;SDS011;9645;51.448;6.260;2022-11-15T09:23:46;6.20;;;2.63;;
19024;SDS011;9645;51.448;6.260;2022-11-15T09:26:14;4.30;;;2.40;;
19024;SDS011;9645;51.448;6.260;2022-11-15T09:28:41;6.23;;;2.47;;
19024;SDS011;9645;51.448;6.260;2022-11-15T09:31:08;7.83;;;2.87;;
19024;SDS011;9645;51.448;6.260;2022-11-15T09:33:36;4.30;;;2.50;;
19024;SDS011;9645;51.448;6.260;2022-11-15T09:36:04;2.03;;;1.67;;
19024;SDS011;9645;51.448;6.260;2022-11-15T09:38:33;3.73;;;1.80;;
19024;SDS011;9645;51.448;6.260;2022-11-15T09:44:03;2.63;;;1.47;;
19024;SDS011;9645;51.448;6.260;2022-11-15T09:46:42;4.17;;;1.90;;
19024;SDS011;9645;51.448;6.260;2022-11-15T09:49:16;4.40;;;1.80;;
19024;SDS011;9645;51.448;6.260;2022-11-15T09:51:44;2.90;;;2.00;;
19024;SDS011;9645;51.448;6.260;2022-11-15T09:54:16;5.10;;;1.87;;
19024;SDS011;9645;51.448;6.260;2022-11-15T09:56:47;1.63;;;1.20;;
19024;SDS011;9645;51.448;6.260;2022-11-15T09:59:18;2.73;;;1.50;;
19024;SDS011;9645;51.448;6.260;2022-11-15T10:01:50;5.97;;;1.43;;
19024;SDS011;9645;51.448;6.260;2022-11-15T10:04:20;4.10;;;1.80;;
19024;SDS011;9645;51.448;6.260;2022-11-15T10:06:49;2.27;;;2.00;;
19024;SDS011;9645;51.448;6.260;2022-11-15T10:09:19;1.30;;;1.17;;
19024;SDS011;9645;51.448;6.260;2022-11-15T10:11:49;1.80;;;1.70;;
19024;SDS011;9645;51.448;6.260;2022-11-15T10:14:17;3.43;;;1.43;;
19024;SDS011;9645;51.448;6.260;2022-11-15T10:19:38;7.87;;;1.40;;
19024;SDS011;9645;51.448;6.260;2022-11-15T10:22:11;1.30;;;1.20;;
19024;SDS011;9645;51.448;6.260;2022-11-15T10:24:44;3.13;;;1.93;;
19024;SDS011;9645;51.448;6.260;2022-11-15T10:27:15;1.50;;;1.40;;
19024;SDS011;9645;51.448;6.260;2022-11-15T10:29:44;1.50;;;1.40;;
19024;SDS011;9645;51.448;6.260;2022-11-15T10:32:12;1.37;;;1.30;;
19024;SDS011;9645;51.448;6.260;2022-11-15T10:34:40;1.30;;;1.20;;
19024;SDS011;9645;51.448;6.260;2022-11-15T10:37:07;1.63;;;0.90;;
19024;SDS011;9645;51.448;6.260;2022-11-15T10:39:34;1.63;;;1.27;;
19024;SDS011;9645;51.448;6.260;2022-11-15T10:42:16;1.63;;;1.03;;
19024;SDS011;9645;51.448;6.260;2022-11-15T10:44:44;2.07;;;1.17;;
19024;SDS011;9645;51.448;6.260;2022-11-15T10:50:00;3.13;;;1.10;;
19024;SDS011;9645;51.448;6.260;2022-11-15T10:52:31;2.13;;;1.23;;
19024;SDS011;9645;51.448;6.260;2022-11-15T10:55:01;2.20;;;1.10;;
19024;SDS011;9645;51.448;6.260;2022-11-15T10:57:35;2.80;;;1.60;;
19024;SDS011;9645;51.448;6.260;2022-11-15T11:00:04;1.10;;;0.93;;
19024;SDS011;9645;51.448;6.260;2022-11-15T11:02:34;4.00;;;1.43;;
19024;SDS011;9645;51.448;6.260;2022-11-15T11:05:04;3.40;;;1.40;;
19024;SDS011;9645;51.448;6.260;2022-11-15T11:07:33;1.57;;;1.10;;
19024;SDS011;9645;51.448;6.260;2022-11-15T11:10:03;1.07;;;0.97;;
19024;SDS011;9645;51.448;6.260;2022-11-15T11:12:44;2.87;;;1.40;;
19024;SDS011;9645;51.448;6.260;2022-11-15T11:15:13;3.07;;;1.17;;
19024;SDS011;9645;51.448;6.260;2022-11-15T11:17:46;1.73;;;1.20;;
19024;SDS011;9645;51.448;6.260;2022-11-15T11:20:22;5.87;;;1.50;;
19024;SDS011;9645;51.448;6.260;2022-11-15T11:23:02;2.67;;;1.60;;
19024;SDS011;9645;51.448;6.260;2022-11-15T11:25:43;1.50;;;1.40;;
19024;SDS011;9645;51.448;6.260;2022-11-15T11:28:21;1.03;;;0.93;;
19024;SDS011;9645;51.448;6.260;2022-11-15T11:31:00;1.13;;;1.03;;
19024;SDS011;9645;51.448;6.260;2022-11-15T11:33:41;2.63;;;1.70;;
19024;SDS011;9645;51.448;6.260;2022-11-15T11:36:16;3.80;;;2.10;;
19024;SDS011;9645;51.448;6.260;2022-11-15T11:38:51;5.90;;;2.00;;
19024;SDS011;9645;51.448;6.260;2022-11-15T11:41:29;2.53;;;1.60;;
19024;SDS011;9645;51.448;6.260;2022-11-15T11:47:00;7.43;;;3.37;;
19024;SDS011;9645;51.448;6.260;2022-11-15T11:49:32;0.97;;;0.97;;
19024;SDS011;9645;51.448;6.260;2022-11-15T11:52:14;1.37;;;1.07;;
19024;SDS011;9645;51.448;6.260;2022-11-15T11:54:50;2.10;;;1.10;;
19024;SDS011;9645;51.448;6.260;2022-11-15T11:57:27;3.17;;;1.00;;
19024;SDS011;9645;51.448;6.260;2022-11-15T12:00:03;5.90;;;3.33;;
19024;SDS011;9645;51.448;6.260;2022-11-15T12:02:32;3.80;;;1.50;;
19024;SDS011;9645;51.448;6.260;2022-11-15T12:05:08;5.07;;;1.00;;
19024;SDS011;9645;51.448;6.260;2022-11-15T12:07:41;1.03;;;1.00;;
19024;SDS011;9645;51.448;6.260;2022-11-15T12:10:15;3.70;;;1.07;;
19024;SDS011;9645;51.448;6.260;2022-11-15T12:12:49;2.70;;;0.80;;
19024;SDS011;9645;51.448;6.260;2022-11-15T12:15:23;2.30;;;1.07;;
19024;SDS011;9645;51.448;6.260;2022-11-15T12:17:54;1.20;;;1.10;;
19024;SDS011;9645;51.448;6.260;2022-11-15T12:20:22;1.20;;;1.10;;
19024;SDS011;9645;51.448;6.260;2022-11-15T12:22:54;4.97;;;1.17;;
19024;SDS011;9645;51.448;6.260;2022-11-15T12:25:30;2.73;;;1.17;;
19024;SDS011;9645;51.448;6.260;2022-11-15T12:28:03;2.20;;;1.10;;
19024;SDS011;9645;51.448;6.260;2022-11-15T12:30:43;1.73;;;0.93;;
19024;SDS011;9645;51.448;6.260;2022-11-15T12:33:30;1.63;;;1.17;;
19024;SDS011;9645;51.448;6.260;2022-11-15T12:36:00;3.10;;;1.40;;
19024;SDS011;9645;51.448;6.260;2022-11-15T12:41:25;2.33;;;1.00;;
19024;SDS011;9645;51.448;6.260;2022-11-15T12:43:53;3.47;;;1.27;;
19024;SDS011;9645;51.448;6.260;2022-11-15T12:49:46;2.10;;;1.30;;
19024;SDS011;9645;51.448;6.260;2022-11-15T12:52:14;3.83;;;1.30;;
19024;SDS011;9645;51.448;6.260;2022-11-15T12:54:52;3.90;;;1.30;;
19024;SDS011;9645;51.448;6.260;2022-11-15T13:03:16;2.00;;;1.30;;
19024;SDS011;9645;51.448;6.260;2022-11-15T13:08:40;13.73;;;1.67;;
19024;SDS011;9645;51.448;6.260;2022-11-15T13:14:57;5.63;;;3.03;;
19024;SDS011;9645;51.448;6.260;2022-11-15T13:17:46;5.37;;;2.00;;
19024;SDS011;9645;51.448;6.260;2022-11-15T13:20:36;3.77;;;1.43;;
19024;SDS011;9645;51.448;6.260;2022-11-15T13:23:20;2.60;;;1.20;;
19024;SDS011;9645;51.448;6.260;2022-11-15T13:26:03;2.70;;;1.90;;
19024;SDS011;9645;51.448;6.260;2022-11-15T13:29:04;6.00;;;1.20;;
19024;SDS011;9645;51.448;6.260;2022-11-15T13:32:16;7.00;;;1.97;;
19024;SDS011;9645;51.448;6.260;2022-11-15T13:34:54;4.77;;;1.87;;
19024;SDS011;9645;51.448;6.260;2022-11-15T13:41:11;4.40;;;1.20;;
19024;SDS011;9645;51.448;6.260;2022-11-15T13:47:13;3.97;;;1.00;;
19024;SDS011;9645;51.448;6.260;2022-11-15T13:50:28;5.23;;;1.00;;
19024;SDS011;9645;51.448;6.260;2022-11-15T13:53:08;5.17;;;1.00;;
19024;SDS011;9645;51.448;6.260;2022-11-15T13:55:43;5.73;;;0.87;;
19024;SDS011;9645;51.448;6.260;2022-11-15T13:58:27;3.47;;;1.10;;
19024;SDS011;9645;51.448;6.260;2022-11-15T14:01:34;2.77;;;1.40;;
19024;SDS011;9645;51.448;6.260;2022-11-15T14:04:22;6.80;;;2.10;;
19024;SDS011;9645;51.448;6.260;2022-11-15T14:06:54;3.20;;;2.20;;
19024;SDS011;9645;51.448;6.260;2022-11-15T14:09:43;4.47;;;2.40;;
19024;SDS011;9645;51.448;6.260;2022-11-15T14:12:35;4.50;;;2.50;;
19024;SDS011;9645;51.448;6.260;2022-11-15T14:15:48;10.13;;;3.20;;
19024;SDS011;9645;51.448;6.260;2022-11-15T14:19:05;3.30;;;1.60;;
19024;SDS011;9645;51.448;6.260;2022-11-15T14:22:16;5.00;;;2.00;;
19024;SDS011;9645;51.448;6.260;2022-11-15T14:25:18;6.53;;;3.23;;
19024;SDS011;9645;51.448;6.260;2022-11-15T14:28:28;9.10;;;3.97;;
19024;SDS011;9645;51.448;6.260;2022-11-15T14:31:25;17.50;;;4.27;;
19024;SDS011;9645;51.448;6.260;2022-11-15T14:34:33;31.87;;;10.50;;
19024;SDS011;9645;51.448;6.260;2022-11-15T14:38:01;7.77;;;3.77;;
19024;SDS011;9645;51.448;6.260;2022-11-15T14:44:03;4.90;;;2.70;;
19024;SDS011;9645;51.448;6.260;2022-11-15T14:50:24;7.40;;;2.50;;
19024;SDS011;9645;51.448;6.260;2022-11-15T14:53:27;7.90;;;1.77;;
19024;SDS011;9645;51.448;6.260;2022-11-15T14:56:21;4.57;;;2.20;;
19024;SDS011;9645;51.448;6.260;2022-11-15T14:59:05;4.70;;;2.13;;
19024;SDS011;9645;51.448;6.260;2022-11-15T15:02:12;6.53;;;2.17;;
19024;SDS011;9645;51.448;6.260;2022-11-15T15:05:12;2.83;;;1.80;;
19024;SDS011;9645;51.448;6.260;2022-11-15T15:08:05;6.10;;;1.80;;
19024;SDS011;9645;51.448;6.260;2022-11-15T15:10:48;2.77;;;1.90;;
19024;SDS011;9645;51.448;6.260;2022-11-15T15:13:28;9.50;;;1.80;;
19024;SDS011;9645;51.448;6.260;2022-11-15T15:16:16;6.43;;;1.70;;
19024;SDS011;9645;51.448;6.260;2022-11-15T15:19:06;3.37;;;1.50;;
19024;SDS011;9645;51.448;6.260;2022-11-15T15:21:56;9.10;;;1.70;;
19024;SDS011;9645;51.448;6.260;2022-11-15T15:24:46;7.13;;;1.77;;
19024;SDS011;9645;51.448;6.260;2022-11-15T15:27:16;2.63;;;1.70;;
19024;SDS011;9645;51.448;6.260;2022-11-15T15:29:47;7.10;;;1.77;;
19024;SDS011;9645;51.448;6.260;2022-11-15T15:32:23;3.73;;;1.83;;
19024;SDS011;9645;51.448;6.260;2022-11-15T15:35:03;4.27;;;2.10;;
19024;SDS011;9645;51.448;6.260;2022-11-15T15:37:39;3.30;;;2.10;;
19024;SDS011;9645;51.448;6.260;2022-11-15T15:40:29;7.03;;;2.37;;
19024;SDS011;9645;51.448;6.260;2022-11-15T15:42:57;3.70;;;1.93;;
19024;SDS011;9645;51.448;6.260;2022-11-15T15:45:25;10.20;;;2.37;;
19024;SDS011;9645;51.448;6.260;2022-11-15T15:47:53;6.00;;;2.37;;
19024;SDS011;9645;51.448;6.260;2022-11-15T15:50:21;8.77;;;2.30;;
19024;SDS011;9645;51.448;6.260;2022-11-15T15:52:50;6.37;;;2.50;;
19024;SDS011;9645;51.448;6.260;2022-11-15T15:55:18;4.63;;;1.90;;
19024;SDS011;9645;51.448;6.260;2022-11-15T15:57:46;5.47;;;2.77;;
19024;SDS011;9645;51.448;6.260;2022-11-15T16:00:14;7.73;;;2.57;;
19024;SDS011;9645;51.448;6.260;2022-11-15T16:02:41;12.33;;;3.00;;
19024;SDS011;9645;51.448;6.260;2022-11-15T16:05:08;4.55;;;3.33;;
19024;SDS011;9645;51.448;6.260;2022-11-15T16:07:36;10.23;;;2.53;;
19024;SDS011;9645;51.448;6.260;2022-11-15T16:10:09;6.80;;;3.27;;
19024;SDS011;9645;51.448;6.260;2022-11-15T16:12:43;5.20;;;2.92;;